Time,TemperatureF,DewpointF,PressureIn,WindDirection,WindDirectionDegrees,WindSpeedMPH,WindSpeedGustMPH,Humidity,HourlyPrecipIn,Conditions,Clouds,dailyrainin,SoftwareType,DateUTC
2013-03-08 00:02:00,31.0,25.0,30.21,NW,324,6.0,11.0,79,0.00,,,0.01,,2013-03-08 05:02:00,
2013-03-08 00:12:00,31.0,25.0,30.21,NW,324,6.0,11.0,79,0.00,,,0.01,,2013-03-08 05:12:00,
2013-03-08 00:22:00,31.0,25.0,30.21,NW,307,9.0,12.0,78,0.00,,,0.01,,2013-03-08 05:22:00,
2013-03-08 00:33:00,30.0,25.0,30.20,WNW,298,5.0,9.0,81,0.00,,,0.01,,2013-03-08 05:33:00,
2013-03-08 00:42:00,30.0,25.0,30.20,WNW,298,5.0,9.0,81,0.00,,,0.01,,2013-03-08 05:42:00,
2013-03-08 00:52:00,30.0,25.0,30.20,WNW,299,5.0,9.0,82,0.00,,,0.01,,2013-03-08 05:52:00,
2013-03-08 01:01:00,30.0,25.0,30.19,WNW,301,5.0,11.0,82,0.00,,,0.01,,2013-03-08 06:01:00,
2013-03-08 01:11:00,30.0,25.0,30.19,WNW,301,5.0,11.0,82,0.00,,,0.01,,2013-03-08 06:11:00,
2013-03-08 01:22:00,30.0,26.0,30.19,NW,306,7.0,9.0,84,0.00,,,0.01,,2013-03-08 06:22:00,
2013-03-08 01:32:00,30.0,26.0,30.19,NW,318,8.0,11.0,84,0.00,,,0.01,,2013-03-08 06:32:00,
2013-03-08 01:42:00,30.0,26.0,30.19,NW,318,8.0,11.0,84,0.00,,,0.01,,2013-03-08 06:42:00,
2013-03-08 01:52:00,30.0,26.0,30.19,NW,313,7.0,11.0,84,0.00,,,0.01,,2013-03-08 06:52:00,
2013-03-08 02:01:00,30.0,26.0,30.19,NW,305,9.0,13.0,85,0.00,,,0.01,,2013-03-08 07:01:00,
2013-03-08 02:11:00,30.0,26.0,30.19,NW,305,9.0,13.0,85,0.00,,,0.01,,2013-03-08 07:11:00,
2013-03-08 02:22:00,29.0,25.0,30.19,WNW,301,8.0,12.0,85,0.00,,,0.01,,2013-03-08 07:22:00,
2013-03-08 02:32:00,29.0,25.0,30.19,WNW,290,11.0,13.0,86,0.00,,,0.01,,2013-03-08 07:32:00,
2013-03-08 02:42:00,29.0,25.0,30.19,WNW,290,11.0,13.0,86,0.00,,,0.01,,2013-03-08 07:42:00,
2013-03-08 02:52:00,29.0,26.0,30.19,WNW,288,6.0,10.0,87,0.00,,,0.01,,2013-03-08 07:52:00,
2013-03-08 03:01:00,29.0,26.0,30.19,WNW,287,7.0,10.0,87,0.00,,,0.01,,2013-03-08 08:01:00,
2013-03-08 03:11:00,29.0,26.0,30.19,WNW,287,7.0,10.0,87,0.00,,,0.01,,2013-03-08 08:11:00,
2013-03-08 03:22:00,29.0,26.0,30.18,NW,309,6.0,12.0,87,0.00,,,0.01,,2013-03-08 08:22:00,
2013-03-08 03:32:00,29.0,25.0,30.18,NW,312,6.0,7.0,86,0.00,,,0.01,,2013-03-08 08:32:00,
2013-03-08 03:42:00,29.0,25.0,30.18,NW,312,6.0,7.0,86,0.00,,,0.01,,2013-03-08 08:42:00,
2013-03-08 03:52:00,29.0,25.0,30.18,NW,312,6.0,7.0,86,0.00,,,0.01,,2013-03-08 08:52:00,
2013-03-08 04:03:00,30.0,25.0,30.18,NNW,343,12.0,16.0,82,0.00,,,0.01,,2013-03-08 09:03:00,
2013-03-08 04:11:00,30.0,25.0,30.18,NNW,343,12.0,16.0,82,0.00,,,0.01,,2013-03-08 09:11:00,
2013-03-08 04:22:00,30.0,25.0,30.18,NW,305,5.0,7.0,82,0.00,,,0.01,,2013-03-08 09:22:00,
2013-03-08 04:32:00,30.0,25.0,30.18,NW,326,7.0,12.0,81,0.00,,,0.01,,2013-03-08 09:32:00,
2013-03-08 04:42:00,30.0,25.0,30.18,NW,326,7.0,12.0,81,0.00,,,0.01,,2013-03-08 09:42:00,
2013-03-08 04:52:00,30.0,25.0,30.19,NW,326,7.0,13.0,81,0.00,,,0.01,,2013-03-08 09:52:00,
2013-03-08 05:01:00,29.0,24.0,30.19,NNW,335,5.0,9.0,82,0.00,,,0.01,,2013-03-08 10:01:00,
2013-03-08 05:11:00,29.0,24.0,30.19,NNW,335,5.0,9.0,82,0.00,,,0.01,,2013-03-08 10:11:00,
2013-03-08 05:21:00,29.0,24.0,30.19,NNW,335,4.0,9.0,81,0.00,,,0.01,,2013-03-08 10:21:00,
2013-03-08 05:32:00,29.0,24.0,30.20,NNW,339,2.0,8.0,80,0.00,,,0.01,,2013-03-08 10:32:00,
2013-03-08 05:42:00,29.0,24.0,30.20,NNW,339,2.0,8.0,80,0.00,,,0.01,,2013-03-08 10:42:00,
2013-03-08 05:52:00,29.0,24.0,30.20,NNW,339,2.0,8.0,80,0.00,,,0.01,,2013-03-08 10:52:00,
2013-03-08 06:01:00,29.0,23.0,30.22,NNW,330,5.0,11.0,77,0.00,,,0.01,,2013-03-08 11:01:00,
2013-03-08 06:11:00,29.0,23.0,30.22,NNW,330,5.0,11.0,77,0.00,,,0.01,,2013-03-08 11:11:00,
2013-03-08 06:22:00,29.0,22.0,30.22,NNW,332,13.0,24.0,74,0.00,,,0.01,,2013-03-08 11:22:00,
2013-03-08 06:32:00,29.0,21.0,30.23,NNW,342,10.0,13.0,72,0.00,,,0.01,,2013-03-08 11:32:00,
2013-03-08 06:42:00,29.0,21.0,30.23,NNW,342,10.0,13.0,72,0.00,,,0.01,,2013-03-08 11:42:00,
2013-03-08 06:52:00,29.0,21.0,30.23,NNW,344,12.0,17.0,71,0.00,,,0.01,,2013-03-08 11:52:00,
2013-03-08 07:02:00,29.0,21.0,30.24,NNW,330,13.0,23.0,72,0.00,,,0.01,,2013-03-08 12:02:00,
2013-03-08 07:11:00,29.0,21.0,30.24,NNW,330,13.0,23.0,72,0.00,,,0.01,,2013-03-08 12:11:00,
2013-03-08 07:22:00,29.0,22.0,30.24,NNW,342,6.0,13.0,74,0.00,,,0.01,,2013-03-08 12:22:00,
2013-03-08 07:32:00,29.0,20.0,30.25,NNW,330,14.0,23.0,70,0.00,,,0.01,,2013-03-08 12:32:00,
2013-03-08 07:43:00,29.0,20.0,30.25,NNW,330,14.0,23.0,70,0.00,,,0.01,,2013-03-08 12:43:00,
2013-03-08 07:53:00,29.0,21.0,30.25,NNW,344,17.0,26.0,73,0.00,,,0.01,,2013-03-08 12:53:00,
2013-03-08 08:01:00,29.0,22.0,30.25,NW,321,18.0,23.0,75,0.00,,,0.01,,2013-03-08 13:01:00,
2013-03-08 08:11:00,29.0,22.0,30.25,NW,321,18.0,23.0,75,0.00,,,0.01,,2013-03-08 13:11:00,
2013-03-08 08:22:00,29.0,22.0,30.25,NW,321,18.0,23.0,75,0.00,,,0.01,,2013-03-08 13:22:00,
2013-03-08 08:32:00,28.0,20.0,30.27,NNW,335,19.0,26.0,73,0.00,,,0.01,,2013-03-08 13:32:00,
2013-03-08 08:42:00,28.0,20.0,30.27,NNW,335,19.0,26.0,73,0.00,,,0.01,,2013-03-08 13:42:00,
2013-03-08 08:52:00,28.0,21.0,30.28,North,349,12.0,20.0,74,0.00,,,0.01,,2013-03-08 13:52:00,
2013-03-08 09:03:00,28.0,20.0,30.28,NNW,335,9.0,23.0,72,0.00,,,0.01,,2013-03-08 14:03:00,
2013-03-08 09:12:00,28.0,20.0,30.28,NNW,335,9.0,23.0,72,0.00,,,0.01,,2013-03-08 14:12:00,
2013-03-08 09:22:00,28.0,20.0,30.29,North,354,7.0,16.0,72,0.00,,,0.01,,2013-03-08 14:22:00,
2013-03-08 09:32:00,29.0,20.0,30.29,NNW,329,9.0,18.0,70,0.00,,,0.01,,2013-03-08 14:32:00,
2013-03-08 09:42:00,29.0,20.0,30.29,NNW,329,9.0,18.0,70,0.00,,,0.01,,2013-03-08 14:42:00,
2013-03-08 09:53:00,30.0,21.0,30.30,NNW,344,9.0,17.0,69,0.00,,,0.01,,2013-03-08 14:53:00,
2013-03-08 10:03:00,30.0,21.0,30.30,NNW,347,13.0,19.0,68,0.00,,,0.01,,2013-03-08 15:03:00,
2013-03-08 10:12:00,30.0,21.0,30.30,NNW,347,13.0,19.0,68,0.00,,,0.01,,2013-03-08 15:12:00,
2013-03-08 10:22:00,30.0,21.0,30.29,NW,325,9.0,14.0,68,0.00,,,0.01,,2013-03-08 15:22:00,
2013-03-08 10:32:00,30.0,20.0,30.29,NNW,328,10.0,18.0,67,0.00,,,0.01,,2013-03-08 15:32:00,
2013-03-08 10:42:00,30.0,20.0,30.29,NNW,328,10.0,18.0,67,0.00,,,0.01,,2013-03-08 15:42:00,
2013-03-08 10:53:00,30.0,21.0,30.29,NW,318,13.0,17.0,69,0.00,,,0.01,,2013-03-08 15:53:00,
2013-03-08 11:01:00,31.0,22.0,30.29,NNW,328,13.0,19.0,68,0.00,,,0.01,,2013-03-08 16:01:00,
2013-03-08 11:11:00,31.0,22.0,30.29,NNW,328,13.0,19.0,68,0.00,,,0.01,,2013-03-08 16:11:00,
2013-03-08 11:22:00,31.0,21.0,30.28,NNW,331,12.0,18.0,66,0.00,,,0.01,,2013-03-08 16:22:00,
2013-03-08 11:32:00,32.0,22.0,30.27,NW,316,15.0,18.0,66,0.00,,,0.01,,2013-03-08 16:32:00,
2013-03-08 11:42:00,32.0,22.0,30.27,NW,316,15.0,18.0,66,0.00,,,0.01,,2013-03-08 16:42:00,
2013-03-08 11:52:00,33.0,23.0,30.27,NW,324,12.0,18.0,66,0.01,,,0.02,,2013-03-08 16:52:00,
2013-03-08 12:03:00,33.0,22.0,30.27,North,354,8.0,15.0,63,0.01,,,0.02,,2013-03-08 17:03:00,
2013-03-08 12:12:00,33.0,22.0,30.27,North,354,8.0,15.0,63,0.01,,,0.02,,2013-03-08 17:12:00,
2013-03-08 12:22:00,33.0,22.0,30.27,NNW,330,17.0,21.0,63,0.02,,,0.03,,2013-03-08 17:22:00,
2013-03-08 12:32:00,34.0,23.0,30.27,NNW,329,13.0,21.0,65,0.02,,,0.03,,2013-03-08 17:32:00,
2013-03-08 12:42:00,34.0,23.0,30.27,NNW,329,13.0,21.0,65,0.02,,,0.03,,2013-03-08 17:42:00,
2013-03-08 12:52:00,35.0,24.0,30.27,North,3,13.0,16.0,64,0.01,,,0.03,,2013-03-08 17:52:00,
2013-03-08 13:02:00,35.0,24.0,30.26,NNW,328,12.0,19.0,65,0.01,,,0.03,,2013-03-08 18:02:00,
2013-03-08 13:11:00,35.0,24.0,30.26,NNW,328,12.0,19.0,65,0.01,,,0.03,,2013-03-08 18:11:00,
2013-03-08 13:22:00,35.0,23.0,30.25,NW,324,12.0,18.0,62,0.00,,,0.03,,2013-03-08 18:22:00,
2013-03-08 13:32:00,35.0,24.0,30.24,NW,325,7.0,13.0,65,0.00,,,0.02,,2013-03-08 18:32:00,
2013-03-08 13:42:00,35.0,24.0,30.24,NW,325,7.0,13.0,65,0.00,,,0.02,,2013-03-08 18:42:00,
2013-03-08 13:52:00,36.0,23.0,30.24,North,1,12.0,17.0,60,0.00,,,0.02,,2013-03-08 18:52:00,
2013-03-08 14:01:00,36.0,24.0,30.24,NNW,332,10.0,16.0,62,0.00,,,0.02,,2013-03-08 19:01:00,
2013-03-08 14:11:00,36.0,24.0,30.24,NNW,332,10.0,16.0,62,0.00,,,0.02,,2013-03-08 19:11:00,
2013-03-08 14:22:00,37.0,26.0,30.24,NNW,328,7.0,10.0,64,0.00,,,0.02,,2013-03-08 19:22:00,
2013-03-08 14:32:00,37.0,26.0,30.23,NW,314,11.0,16.0,63,0.00,,,0.02,,2013-03-08 19:32:00,
2013-03-08 14:42:00,37.0,26.0,30.23,NW,314,11.0,16.0,63,0.00,,,0.02,,2013-03-08 19:42:00,
2013-03-08 14:52:00,37.0,26.0,30.23,NW,324,9.0,15.0,63,0.00,,,0.02,,2013-03-08 19:52:00,
2013-03-08 15:01:00,37.0,26.0,30.23,NNW,328,8.0,15.0,64,0.01,,,0.03,,2013-03-08 20:01:00,
2013-03-08 15:11:00,37.0,26.0,30.23,NNW,328,8.0,15.0,64,0.01,,,0.03,,2013-03-08 20:11:00,
2013-03-08 15:22:00,37.0,26.0,30.24,NNW,330,11.0,17.0,64,0.01,,,0.03,,2013-03-08 20:22:00,
2013-03-08 15:32:00,37.0,26.0,30.24,NNW,327,10.0,13.0,64,0.02,,,0.04,,2013-03-08 20:32:00,
2013-03-08 15:42:00,37.0,26.0,30.24,NNW,327,10.0,13.0,64,0.02,,,0.04,,2013-03-08 20:42:00,
2013-03-08 15:53:00,38.0,27.0,30.24,NW,325,7.0,13.0,65,0.03,,,0.05,,2013-03-08 20:53:00,
2013-03-08 16:02:00,38.0,27.0,30.25,NW,318,8.0,15.0,64,0.03,,,0.06,,2013-03-08 21:02:00,
2013-03-08 16:11:00,38.0,27.0,30.25,NW,318,8.0,15.0,64,0.03,,,0.06,,2013-03-08 21:11:00,
2013-03-08 16:22:00,38.0,26.0,30.24,NW,326,10.0,15.0,61,0.03,,,0.06,,2013-03-08 21:22:00,
2013-03-08 16:32:00,38.0,25.0,30.25,NW,323,10.0,17.0,60,0.03,,,0.07,,2013-03-08 21:32:00,
2013-03-08 16:42:00,38.0,25.0,30.25,NW,323,10.0,17.0,60,0.03,,,0.07,,2013-03-08 21:42:00,
2013-03-08 16:52:00,38.0,26.0,30.25,NNW,340,12.0,17.0,62,0.02,,,0.07,,2013-03-08 21:52:00,
2013-03-08 17:01:00,38.0,27.0,30.25,NNW,338,13.0,16.0,64,0.01,,,0.07,,2013-03-08 22:01:00,
2013-03-08 17:11:00,38.0,27.0,30.25,NNW,338,13.0,16.0,64,0.01,,,0.07,,2013-03-08 22:11:00,
2013-03-08 17:22:00,38.0,27.0,30.25,NW,317,11.0,15.0,63,0.02,,,0.08,,2013-03-08 22:22:00,
2013-03-08 17:32:00,38.0,27.0,30.26,NW,325,8.0,12.0,63,0.01,,,0.08,,2013-03-08 22:32:00,
2013-03-08 17:42:00,38.0,27.0,30.26,NW,325,8.0,12.0,63,0.01,,,0.08,,2013-03-08 22:42:00,
2013-03-08 17:53:00,38.0,26.0,30.26,NNW,337,8.0,12.0,61,0.01,,,0.08,,2013-03-08 22:53:00,
2013-03-08 18:02:00,37.0,26.0,30.27,NW,321,11.0,14.0,63,0.01,,,0.08,,2013-03-08 23:02:00,
2013-03-08 18:12:00,37.0,26.0,30.27,NW,321,11.0,14.0,63,0.01,,,0.08,,2013-03-08 23:12:00,
2013-03-08 18:22:00,37.0,25.0,30.27,NW,323,7.0,15.0,62,0.01,,,0.09,,2013-03-08 23:22:00,
2013-03-08 18:32:00,36.0,25.0,30.27,NW,326,4.0,10.0,64,0.01,,,0.09,,2013-03-08 23:32:00,
2013-03-08 18:42:00,36.0,25.0,30.27,NW,326,4.0,10.0,64,0.01,,,0.09,,2013-03-08 23:42:00,
2013-03-08 18:53:00,36.0,25.0,30.28,NNW,337,10.0,13.0,65,0.01,,,0.09,,2013-03-08 23:53:00,
2013-03-08 19:02:00,35.0,25.0,30.28,NNW,335,10.0,13.0,66,0.01,,,0.09,,2013-03-09 00:02:00,
2013-03-08 19:12:00,35.0,25.0,30.28,NNW,335,10.0,13.0,66,0.01,,,0.09,,2013-03-09 00:12:00,
2013-03-08 19:22:00,35.0,25.0,30.29,NNW,340,7.0,10.0,67,0.00,,,0.09,,2013-03-09 00:22:00,
2013-03-08 19:32:00,34.0,24.0,30.29,North,349,3.0,9.0,67,0.00,,,0.09,,2013-03-09 00:32:00,
2013-03-08 19:42:00,34.0,24.0,30.29,North,349,3.0,9.0,67,0.00,,,0.09,,2013-03-09 00:42:00,
2013-03-08 19:52:00,33.0,25.0,30.28,NNW,331,0.0,2.0,71,0.00,,,0.09,,2013-03-09 00:52:00,
2013-03-08 20:02:00,32.0,24.0,30.27,ENE,77,2.0,4.0,73,0.00,,,0.09,,2013-03-09 01:02:00,
2013-03-08 20:12:00,32.0,24.0,30.28,North,351,1.0,2.0,73,0.00,,,0.09,,2013-03-09 01:12:00,
2013-03-08 20:22:00,32.0,24.0,30.28,North,351,1.0,2.0,73,0.00,,,0.09,,2013-03-09 01:22:00,
2013-03-08 20:32:00,31.0,24.0,30.29,WNW,299,1.0,4.0,75,0.00,,,0.09,,2013-03-09 01:32:00,
2013-03-08 20:42:00,31.0,24.0,30.29,WNW,299,1.0,4.0,75,0.00,,,0.09,,2013-03-09 01:42:00,
2013-03-08 20:52:00,31.0,24.0,30.28,NW,311,1.0,3.0,74,0.00,,,0.09,,2013-03-09 01:52:00,
2013-03-08 21:01:00,30.0,23.0,30.28,NW,311,1.0,2.0,76,0.00,,,0.09,,2013-03-09 02:01:00,
2013-03-08 21:11:00,30.0,23.0,30.28,NW,311,1.0,2.0,76,0.00,,,0.09,,2013-03-09 02:11:00,
2013-03-08 21:21:00,29.0,23.0,30.29,NW,311,0.0,1.0,79,0.00,,,0.09,,2013-03-09 02:21:00,
2013-03-08 21:31:00,27.0,22.0,30.29,NW,311,0.0,0.0,81,0.00,,,0.09,,2013-03-09 02:31:00,
2013-03-08 21:41:00,27.0,23.0,30.29,NNW,342,3.0,4.0,83,0.00,,,0.09,,2013-03-09 02:41:00,
2013-03-08 21:51:00,27.0,23.0,30.29,NNW,342,3.0,4.0,83,0.00,,,0.09,,2013-03-09 02:51:00,
2013-03-08 22:01:00,27.0,22.0,30.30,NW,315,0.0,1.0,82,0.00,,,0.09,,2013-03-09 03:01:00,
2013-03-08 22:11:00,27.0,22.0,30.30,NW,315,0.0,1.0,82,0.00,,,0.09,,2013-03-09 03:11:00,
2013-03-08 22:22:00,27.0,23.0,30.31,NNW,330,3.0,4.0,84,0.00,,,0.09,,2013-03-09 03:22:00,
2013-03-08 22:31:00,27.0,23.0,30.31,SSE,153,2.0,3.0,83,0.00,,,0.09,,2013-03-09 03:31:00,
2013-03-08 22:41:00,27.0,23.0,30.31,SSE,153,2.0,3.0,83,0.00,,,0.09,,2013-03-09 03:41:00,
2013-03-08 22:52:00,25.0,21.0,30.31,WNW,297,0.0,2.0,85,0.00,,,0.09,,2013-03-09 03:52:00,
2013-03-08 23:01:00,25.0,22.0,30.31,WNW,298,1.0,1.0,87,0.00,,,0.09,,2013-03-09 04:01:00,
2013-03-08 23:11:00,25.0,22.0,30.31,WNW,298,1.0,1.0,87,0.00,,,0.09,,2013-03-09 04:11:00,
2013-03-08 23:22:00,24.0,21.0,30.31,WNW,298,0.0,0.0,87,0.00,,,0.09,,2013-03-09 04:22:00,
2013-03-08 23:32:00,24.0,21.0,30.30,WNW,298,0.0,1.0,89,0.00,,,0.09,,2013-03-09 04:32:00,
2013-03-08 23:42:00,24.0,21.0,30.30,WNW,298,0.0,1.0,89,0.00,,,0.09,,2013-03-09 04:42:00,
2013-03-08 23:52:00,23.0,20.0,30.30,NW,304,0.0,2.0,89,0.00,,,0.09,,2013-03-09 04:52:00,